FW5126 Indian Beach NC US current weather conditions

sailwx.info

Wind from 241

Air temperature 23.9° C
Dewpoint 23.0° C

Last reported at 2020-Sep-18 10:00 UTC.
Time now 2020-Sep-18 10:34 UTC

Location: N 34°41' W 076°54'.
View on Google Maps.

See reports from other nearby stations

  
Tides and Currents Weather Stations Pressure Air Temp Water Temp Dewpoint Dewpoint Depression Visibility Wind Speed Wind Dir Waves Ship Positions
date/time (UTC)wind fromknots sea level pressurealtimeterstation pressurevisibilityair tempwater tempwave heightnotes
2020-Sep-18 10:00 241 23.9
2020-Sep-18 09:45 265 0 gusting 4 23.9
2020-Sep-18 09:30 239 1 gusting 8 23.9
2020-Sep-18 09:15 251 2 gusting 6 23.9
2020-Sep-18 09:00 252 1 gusting 6 24.4
2020-Sep-18 08:45 263 7 gusting 13 24.4
2020-Sep-18 08:30 360 11 gusting 17 25.6
2020-Sep-18 08:15 360 13 gusting 20 25.6
2020-Sep-18 08:00 360 17 gusting 25 27.2
2020-Sep-18 07:45 360 17 gusting 22 27.2
2020-Sep-18 07:30 360 19 gusting 24 27.2
2020-Sep-18 07:15 360 21 gusting 26 26.7
2020-Sep-18 07:00 360 19 gusting 27 26.1
2020-Sep-18 06:46 360 24 gusting 35 26.1
2020-Sep-18 06:33 360 23 gusting 36 26.1
2020-Sep-18 06:16 360 14 gusting 21 27.8
2020-Sep-18 06:01 360 18 gusting 22 27.8
2020-Sep-18 05:46 360 19 gusting 26 27.8
2020-Sep-18 05:31 360 16 gusting 19 27.8
2020-Sep-18 05:17 360 15 gusting 20 27.8
2020-Sep-18 05:01 360 16 gusting 20 27.8
2020-Sep-18 04:46 360 16 gusting 21 27.8
2020-Sep-18 04:32 360 15 gusting 19 27.8
2020-Sep-18 04:15 360 16 gusting 20 27.2
2020-Sep-18 04:00 360 14 gusting 19 27.2
2020-Sep-18 03:45 360 14 gusting 18 27.2
2020-Sep-18 03:30 360 14 gusting 18 27.2
2020-Sep-18 03:15 360 13 gusting 16 27.2
2020-Sep-18 03:00 360 13 gusting 17 27.2
2020-Sep-18 02:45 360 13 gusting 16 27.2
2020-Sep-18 02:30 360 14 gusting 19 27.2
2020-Sep-18 02:15 360 12 gusting 18 27.2
2020-Sep-18 02:00 360 13 gusting 19 27.2
2020-Sep-18 01:45 360 13 gusting 19 26.7
2020-Sep-18 01:30 360 10 gusting 14 27.2
2020-Sep-18 01:15 360 13 gusting 17 27.2
2020-Sep-18 01:00 360 14 gusting 17 26.7
2020-Sep-18 00:45 360 13 gusting 22 26.7
2020-Sep-18 00:30 140 12 gusting 19 25.6
2020-Sep-18 00:15 084 11 gusting 18 25.0
2020-Sep-18 00:00 080 14 gusting 19 25.0
2020-Sep-17 23:45 093 17 gusting 23 25.0
2020-Sep-17 23:30 111 6 gusting 9 24.4
2020-Sep-17 23:15 048 1 gusting 3 24.4
2020-Sep-17 23:00 360 2 gusting 6 24.4
2020-Sep-17 22:45 011 1 gusting 4 24.4
2020-Sep-17 22:30 040 0 gusting 2 24.4
2020-Sep-17 22:15 112 1 gusting 6 24.4
2020-Sep-17 22:00 142 2 gusting 6 24.4
2020-Sep-17 21:45 136 8 gusting 11 24.4
2020-Sep-17 21:30 360 25.0
2020-Sep-17 21:15 058 3 gusting 7 25.0
2020-Sep-17 21:00 086 5 gusting 7 25.0
2020-Sep-17 20:47 101 6 gusting 8 25.0
2020-Sep-17 20:32 119 6 gusting 8 25.0
2020-Sep-17 20:17 146 6 gusting 10 25.0
2020-Sep-17 20:01 146 7 gusting 18 25.6
2020-Sep-17 19:47 360 11 gusting 14 26.1
2020-Sep-17 19:32 360 4 gusting 6 26.1
2020-Sep-17 19:17 360 5 gusting 11 26.1
2020-Sep-17 19:02 360 9 gusting 12 26.1
2020-Sep-17 18:47 360 10 gusting 13 26.1
2020-Sep-17 18:31 360 7 gusting 11 26.1
2020-Sep-17 18:16 360 7 gusting 11 26.1
2020-Sep-17 18:01 360 7 gusting 10 26.1
2020-Sep-17 17:47 360 8 gusting 13 25.6
2020-Sep-17 17:30 360 12 gusting 15 25.6
2020-Sep-17 17:16 360 11 gusting 14 25.6
2020-Sep-17 17:00 360 10 gusting 13 25.6
2020-Sep-17 16:46 183 8 gusting 14 25.0
2020-Sep-17 16:31 172 14 gusting 19 25.0
2020-Sep-17 16:15 163 15 gusting 19 24.4
2020-Sep-17 16:01 176 18 gusting 24 25.0
2020-Sep-17 15:46 159 11 gusting 15 24.4
2020-Sep-17 15:30 096 7 gusting 11 25.6
2020-Sep-17 15:15 360 8 gusting 12 25.6
2020-Sep-17 15:00 360 7 gusting 13 25.6
2020-Sep-17 14:45 360 12 gusting 14 25.6
2020-Sep-17 14:31 360 11 gusting 14 25.0
2020-Sep-17 14:16 097 9 gusting 14 25.6
2020-Sep-17 14:00 098 12 gusting 16 24.4
2020-Sep-17 13:45 126 18 gusting 22 24.4
2020-Sep-17 13:30 088 11 gusting 14 25.6
2020-Sep-17 13:15 096 7 gusting 12 25.0
2020-Sep-17 13:00 044 2 gusting 8 24.4
2020-Sep-17 12:46 073 3 gusting 10 24.4
2020-Sep-17 12:30 074 7 gusting 13 24.4
2020-Sep-17 12:15 095 8 gusting 16 24.4
2020-Sep-17 12:00 074 11 gusting 17 25.0
2020-Sep-17 11:45 090 13 gusting 17 24.4
2020-Sep-17 11:30 092 15 gusting 19 25.0
2020-Sep-17 11:16 061 13 gusting 17 24.4
2020-Sep-17 11:00 105 13 gusting 18 24.4
2020-Sep-17 10:45 069 10 gusting 13 24.4
2020-Sep-17 10:30 087 10 gusting 16 24.4
2020-Sep-17 10:15 090 14 gusting 19 24.4
2020-Sep-17 10:00 079 11 gusting 19 24.4
2020-Sep-17 09:45 086 6 gusting 16 24.4
2020-Sep-17 09:30 071 12 gusting 16 23.9
2020-Sep-17 09:15 076 12 gusting 19 24.4
2020-Sep-17 09:00 094 14 gusting 18 25.0
2020-Sep-17 08:47 101 13 gusting 16 25.6
2020-Sep-17 08:33 093 13 gusting 17 26.1
2020-Sep-17 08:17 360 11 gusting 14 26.1
2020-Sep-17 08:01 094 12 gusting 14 26.1
2020-Sep-17 07:46 092 10 gusting 15 26.1
2020-Sep-17 07:32 098 12 gusting 15 26.1
2020-Sep-17 07:16 050 2 gusting 8 25.0
2020-Sep-17 07:01 084 13 gusting 23 25.6
2020-Sep-17 06:46 088 14 gusting 18 26.7
2020-Sep-17 06:31 092 13 gusting 16 26.7
2020-Sep-17 06:16 087 12 gusting 17 26.7
2020-Sep-17 06:01 096 13 gusting 17 26.1
2020-Sep-17 05:46 092 15 gusting 19 26.7
2020-Sep-17 05:15 080 14 gusting 18 26.1
2020-Sep-17 05:00 089 13 gusting 17 26.1
2020-Sep-17 04:46 084 14 gusting 18 26.7
2020-Sep-17 04:31 086 14 gusting 19 26.7
2020-Sep-17 04:15 094 15 gusting 19 26.7
2020-Sep-17 04:01 090 16 gusting 19 26.7
2020-Sep-17 03:45 083 14 gusting 19 26.7
2020-Sep-17 03:31 087 14 gusting 19 26.7
2020-Sep-17 03:15 083 14 gusting 19 26.7
2020-Sep-17 03:00 073 15 gusting 19 26.7
2020-Sep-17 02:45 096 13 gusting 19 26.7
2020-Sep-17 02:30 067 13 gusting 18 26.7
2020-Sep-17 02:15 079 13 gusting 19 26.7
2020-Sep-17 02:00 069 11 gusting 18 26.7
2020-Sep-17 01:45 087 13 gusting 19 26.7
2020-Sep-17 01:30 087 13 gusting 17 26.7
2020-Sep-17 01:15 071 12 gusting 18 26.7
2020-Sep-17 01:00 087 11 gusting 17 26.1
2020-Sep-17 00:45 075 9 gusting 16 26.1
2020-Sep-17 00:30 104 11 gusting 19 26.1
2020-Sep-17 00:15 109 12 gusting 15 26.1
2020-Sep-17 00:01 062 11 gusting 15 26.1
2020-Sep-16 23:45 069 11 gusting 15 26.1
2020-Sep-16 23:30 074 12 gusting 14 26.1
2020-Sep-16 23:15 082 11 gusting 15 26.1
2020-Sep-16 23:01 066 10 gusting 17 26.7
2020-Sep-16 22:45 082 12 gusting 17 26.7
2020-Sep-16 22:31 079 12 gusting 16 26.7
2020-Sep-16 22:15 092 13 gusting 18 26.7
2020-Sep-16 22:00 096 13 gusting 18 26.7
2020-Sep-16 21:45 360 12 gusting 17 27.2
2020-Sep-16 21:31 360 14 gusting 18 27.2
2020-Sep-16 21:00 360 13 gusting 18 27.2
2020-Sep-16 20:45 360 14 gusting 18 27.2
2020-Sep-16 20:30 091 13 gusting 19 27.2
2020-Sep-16 20:15 096 16 gusting 19 27.8
2020-Sep-16 20:00 099 14 gusting 18 27.8
2020-Sep-16 19:45 096 14 gusting 19 27.8
2020-Sep-16 19:30 086 14 gusting 19 27.8
2020-Sep-16 19:15 097 13 gusting 19 28.3
2020-Sep-16 18:47 360 13 gusting 19 28.3
2020-Sep-16 18:31 360 13 gusting 19 27.8
2020-Sep-16 18:18 360 14 gusting 18 27.8
2020-Sep-16 18:01 360 13 gusting 18 27.8
2020-Sep-16 17:46 360 14 gusting 18 27.8
2020-Sep-16 17:31 088 14 gusting 18 27.2
2020-Sep-16 17:16 094 15 gusting 19 27.2
2020-Sep-16 17:01 098 14 gusting 18 27.2
2020-Sep-16 16:46 360 8 gusting 17 27.2
2020-Sep-16 16:31 098 11 gusting 13 28.3
2020-Sep-16 16:16 098 12 gusting 15 28.3
2020-Sep-16 16:01 081 8 gusting 12 28.3
2020-Sep-16 15:47 041 2 gusting 8 27.8
2020-Sep-16 15:30 232 2 gusting 9 26.7
2020-Sep-16 15:16 360 2 gusting 7 26.1
2020-Sep-16 15:02 078 3 gusting 8 26.1
2020-Sep-16 14:46 360 4 gusting 9 26.1
2020-Sep-16 14:30 360 1 gusting 9 25.6
2020-Sep-16 14:16 024 4 gusting 10 25.0
2020-Sep-16 14:01 355 3 gusting 8 24.4
2020-Sep-16 13:45 037 2 gusting 12 24.4
2020-Sep-16 13:30 039 4 gusting 12 24.4
2020-Sep-16 13:15 343 4 gusting 13 23.9
2020-Sep-16 13:01 360 3 gusting 12 23.9
2020-Sep-16 12:45 360 5 gusting 11 23.3
2020-Sep-16 12:30 360 3 gusting 9 22.8
2020-Sep-16 12:15 360 3 gusting 7 22.2
2020-Sep-16 12:00 360 3 gusting 7 21.7
2020-Sep-16 11:45 360 2 gusting 6 21.1
2020-Sep-16 11:30 309 2 gusting 10 21.1
2020-Sep-16 11:02 009 2 gusting 8 20.6
2020-Sep-16 10:47 040 1 gusting 7 20.6
2020-Sep-16 10:32 351 1 gusting 6 20.6